Espaço - Ciências - Fenômenos Naturais
Meteógrafos Informações Meteorológicas em tempo real

Aeroporto Internacional de Brasília

Histórico do Tempo
Temperatura atual: 20 graus 68 F    Umidade relativa: 77 %
Velocidade do vento: 02 nós 3 Km/h    Direção: 210 graus SSW
Ajuste do altímetro ..: 1021 HPA
Visibilidade: Ótima    Tempo presente: Céu Limpo

Observação

Data Hora BRTTempo°CUmidadePressãoVentoVisib.
26/05 - 08:56   Céu Limpo 20° 77% 1021 Sul-sudoeste/3 km/h OK
26/05 - 07:56   Céu Limpo 17° 88% 1020 Norte/0 km/h OK
26/05 - 06:56   Quase sem nuvens 16° 93% 1019 /3 km/h OK
26/05 - 05:56   Quase sem nuvens 17° 93% 1019 Norte/0 km/h OK
26/05 - 04:56   Quase sem nuvens 17° 93% 1019 Oeste-sudoeste/3 km/h OK
26/05 - 03:56   Quase sem nuvens 17° 93% 1019 Norte/0 km/h OK
26/05 - 02:56   Céu Limpo 18° 93% 1020 /3 km/h OK
26/05 - 01:56   Céu Limpo 18° 93% 1020 Norte/0 km/h OK
26/05 - 00:56   Céu Limpo 19° 88% 1020 /3 km/h OK
25/05 - 23:56   Céu Limpo 19° 88% 1020 Oeste-sudoeste/3 km/h OK
25/05 - 22:56   Céu Limpo 19° 88% 1020 Oeste-sudoeste/3 km/h OK
25/05 - 21:56   Céu Limpo 20° 82% 1020 Sudoeste/5 km/h CAVO
25/05 - 20:56   Não Disponível 22° 78% 1019 Sul/9 km/h OK
25/05 - 19:56   Não Disponível 22° 78% 1019 Sul/9 km/h OK
25/05 - 18:56   Não Disponível 23° 73% 1019 Sul-sudeste/10 km/h OK
25/05 - 17:56   Não Disponível 25° 65% 1018 Sul/10 km/h OK
25/05 - 16:56   Não Disponível 26° 61% 1018 Sul/14 km/h OK
25/05 - 15:56   Não Disponível 27° 61% 1017 Sul/14 km/h 9999
25/05 - 14:56   Não Disponível 27° 58% 1018 Sul-sudeste/14 km/h OK
25/05 - 13:56   Não Disponível 27° 58% 1018 Sul-sudeste/14 km/h OK
25/05 - 12:56   Não Disponível 28° 48% 1018 Norte-nordeste/5 km/h OK
25/05 - 11:56   Não Disponível 25° 57% 1020 /3 km/h OK
25/05 - 10:56   Não Disponível 23° 73% 1021 /3 km/h OK
25/05 - 09:56   Não Disponível 23° 73% 1021 /3 km/h OK


Apolo11.com - Todos os direitos reservados - 2000 - 2019
Política de Privacidade   |     Termo de Uso e Licenciamento   |  -   Entre em Contato

"Deixe que me odeiem, de maneira que me temam!" - Calígula